FDMS/MTS METAR and TAF weather

Enter ICAO airport designator
Station Type Date Time Source
FDMS METAR 2019/08/19 10:00 UTC NOAA

FDMS 191000Z 26008KT 9999 FEW040 31/01 Q1021 NOSIG


Station Type Date Time Source
FDMS Decoded METAR 2019/08/19 10:00 UTC NOAA

Manzini / Matsapa Airport, Swaziland (FDMS) 26-32S 031-18E
Aug 19, 2019 - 06:00 AM EDT / 2019.08.19 1000 UTC
Wind: from the W (260 degrees) at 9 MPH (8 KT):0
Visibility: greater than 7 mile(s):0
Sky conditions: mostly clear
Temperature: 87 F (31 C)
Dew Point: 33 F (1 C)
Relative Humidity: 14%
Pressure (altimeter): 30.15 in. Hg (1021 hPa)
ob: FDMS 191000Z 26008KT 9999 FEW040 31/01 Q1021 NOSIG
cycle: 10

Station Type Date Time Source
FDMS TAF 2019/06/03 12:35 UTC NOAA

TAF FDMS 031000Z 0312/0418 12006KT CAVOK

Example: see airport list